sensor_id;sensor_type;location;lat;lon;timestamp;pressure;altitude;pressure_sealevel;temperature;humidity
78354;BME280;67629;46.040;18.232;2023-05-13T00:00:51;99911.19;;;9.52;89.42
78354;BME280;67629;46.040;18.232;2023-05-13T00:01:25;99909.97;;;9.48;89.57
78354;BME280;67629;46.040;18.232;2023-05-13T00:02:28;99919.13;;;9.53;89.54
78354;BME280;67629;46.040;18.232;2023-05-13T00:04:09;99913.22;;;9.56;89.42
78354;BME280;67629;46.040;18.232;2023-05-13T00:05:17;99912.03;;;9.52;89.04
78354;BME280;67629;46.040;18.232;2023-05-13T00:06:23;99911.06;;;9.47;89.69
78354;BME280;67629;46.040;18.232;2023-05-13T00:08:05;99908.94;;;9.49;89.57
78354;BME280;67629;46.040;18.232;2023-05-13T00:08:42;99907.63;;;9.51;89.59
78354;BME280;67629;46.040;18.232;2023-05-13T00:09:14;99895.16;;;9.44;89.61
78354;BME280;67629;46.040;18.232;2023-05-13T00:09:46;99909.59;;;9.44;89.81
78354;BME280;67629;46.040;18.232;2023-05-13T00:10:48;99901.19;;;9.46;89.40
78354;BME280;67629;46.040;18.232;2023-05-13T00:11:53;99908.16;;;9.42;89.93
78354;BME280;67629;46.040;18.232;2023-05-13T00:13:01;99902.72;;;9.42;90.50
78354;BME280;67629;46.040;18.232;2023-05-13T00:14:09;99906.53;;;9.41;90.24
78354;BME280;67629;46.040;18.232;2023-05-13T00:15:15;99896.66;;;9.40;89.94
78354;BME280;67629;46.040;18.232;2023-05-13T00:16:23;99897.25;;;9.42;89.96
78354;BME280;67629;46.040;18.232;2023-05-13T00:18:09;99894.19;;;9.38;90.31
78354;BME280;67629;46.040;18.232;2023-05-13T00:18:43;99888.72;;;9.38;90.43
78354;BME280;67629;46.040;18.232;2023-05-13T00:19:17;99884.25;;;9.44;89.94
78354;BME280;67629;46.040;18.232;2023-05-13T00:19:52;99892.66;;;9.42;90.03
78354;BME280;67629;46.040;18.232;2023-05-13T00:20:24;99889.78;;;9.37;90.52
78354;BME280;67629;46.040;18.232;2023-05-13T00:20:58;99887.91;;;9.38;90.35
78354;BME280;67629;46.040;18.232;2023-05-13T00:21:32;99892.88;;;9.41;90.17
78354;BME280;67629;46.040;18.232;2023-05-13T00:22:34;99883.75;;;9.35;90.06
78354;BME280;67629;46.040;18.232;2023-05-13T00:24:11;99890.69;;;9.31;90.29
78354;BME280;67629;46.040;18.232;2023-05-13T00:24:45;99877.06;;;9.31;90.93
78354;BME280;67629;46.040;18.232;2023-05-13T00:25:19;99888.81;;;9.32;90.58
78354;BME280;67629;46.040;18.232;2023-05-13T00:25:51;99884.03;;;9.27;90.42
78354;BME280;67629;46.040;18.232;2023-05-13T00:26:25;99887.59;;;9.28;90.21
78354;BME280;67629;46.040;18.232;2023-05-13T00:28:05;99889.66;;;9.32;90.40
78354;BME280;67629;46.040;18.232;2023-05-13T00:28:39;99896.59;;;9.28;90.94
78354;BME280;67629;46.040;18.232;2023-05-13T00:29:11;99886.91;;;9.32;90.71
78354;BME280;67629;46.040;18.232;2023-05-13T00:29:45;99892.81;;;9.29;90.76
78354;BME280;67629;46.040;18.232;2023-05-13T00:30:17;99888.44;;;9.28;90.42
78354;BME280;67629;46.040;18.232;2023-05-13T00:30:49;99889.25;;;9.29;90.86
78354;BME280;67629;46.040;18.232;2023-05-13T00:31:23;99891.41;;;9.27;90.81
78354;BME280;67629;46.040;18.232;2023-05-13T00:31:55;99892.19;;;9.27;90.48
78354;BME280;67629;46.040;18.232;2023-05-13T00:32:29;99894.47;;;9.30;90.24
78354;BME280;67629;46.040;18.232;2023-05-13T00:34:07;99899.78;;;9.25;90.16
78354;BME280;67629;46.040;18.232;2023-05-13T00:35:46;99891.84;;;9.24;90.24
78354;BME280;67629;46.040;18.232;2023-05-13T00:36:20;99899.78;;;9.25;90.65
78354;BME280;67629;46.040;18.232;2023-05-13T00:36:54;99899.41;;;9.22;91.03
78354;BME280;67629;46.040;18.232;2023-05-13T00:38:00;99898.09;;;9.24;91.07
78354;BME280;67629;46.040;18.232;2023-05-13T00:39:04;99899.78;;;9.25;90.84
78354;BME280;67629;46.040;18.232;2023-05-13T00:39:38;99899.78;;;9.25;90.83
78354;BME280;67629;46.040;18.232;2023-05-13T00:40:22;99902.50;;;9.25;90.34
78354;BME280;67629;46.040;18.232;2023-05-13T00:40:57;99897.31;;;9.24;90.67
78354;BME280;67629;46.040;18.232;2023-05-13T00:41:31;99901.06;;;9.23;90.72
78354;BME280;67629;46.040;18.232;2023-05-13T00:42:33;99904.63;;;9.23;90.68
78354;BME280;67629;46.040;18.232;2023-05-13T00:43:38;99903.94;;;9.28;90.68
78354;BME280;67629;46.040;18.232;2023-05-13T00:44:40;99915.53;;;9.23;90.88
78354;BME280;67629;46.040;18.232;2023-05-13T00:46:16;99917.19;;;9.24;90.79
78354;BME280;67629;46.040;18.232;2023-05-13T00:47:23;99917.50;;;9.34;90.39
78354;BME280;67629;46.040;18.232;2023-05-13T00:48:30;99917.94;;;9.31;90.27
78354;BME280;67629;46.040;18.232;2023-05-13T00:49:33;99917.88;;;9.38;89.89
78354;BME280;67629;46.040;18.232;2023-05-13T00:50:40;99916.81;;;9.39;89.97
78354;BME280;67629;46.040;18.232;2023-05-13T00:51:17;99918.94;;;9.37;90.31
78354;BME280;67629;46.040;18.232;2023-05-13T00:51:51;99920.59;;;9.38;89.82
78354;BME280;67629;46.040;18.232;2023-05-13T00:52:28;99922.81;;;9.29;90.26
78354;BME280;67629;46.040;18.232;2023-05-13T00:53:02;99913.34;;;9.32;89.93
78354;BME280;67629;46.040;18.232;2023-05-13T00:53:38;99919.00;;;9.30;89.96
78354;BME280;67629;46.040;18.232;2023-05-13T00:55:12;99924.69;;;9.29;90.08
78354;BME280;67629;46.040;18.232;2023-05-13T00:56:47;99911.75;;;9.24;90.67
78354;BME280;67629;46.040;18.232;2023-05-13T00:58:24;99906.66;;;9.28;90.58
78354;BME280;67629;46.040;18.232;2023-05-13T01:00:01;99916.72;;;9.27;90.30
78354;BME280;67629;46.040;18.232;2023-05-13T01:01:49;99922.44;;;9.26;90.54
78354;BME280;67629;46.040;18.232;2023-05-13T01:06:17;99926.97;;;9.32;90.59
78354;BME280;67629;46.040;18.232;2023-05-13T01:08:50;99920.28;;;9.28;90.18
78354;BME280;67629;46.040;18.232;2023-05-13T01:10:46;99922.34;;;9.32;90.46
78354;BME280;67629;46.040;18.232;2023-05-13T01:12:02;99921.91;;;9.35;90.52
78354;BME280;67629;46.040;18.232;2023-05-13T01:13:47;99924.47;;;9.30;90.48
78354;BME280;67629;46.040;18.232;2023-05-13T01:16:19;99927.19;;;9.30;90.62
78354;BME280;67629;46.040;18.232;2023-05-13T01:17:34;99927.28;;;9.24;90.92
78354;BME280;67629;46.040;18.232;2023-05-13T01:18:42;99922.19;;;9.27;90.46
78354;BME280;67629;46.040;18.232;2023-05-13T01:19:34;99921.44;;;9.20;90.48
78354;BME280;67629;46.040;18.232;2023-05-13T01:20:44;99926.44;;;9.23;91.14
78354;BME280;67629;46.040;18.232;2023-05-13T01:21:26;99931.91;;;9.23;90.83
78354;BME280;67629;46.040;18.232;2023-05-13T01:22:33;99931.44;;;9.26;91.00
78354;BME280;67629;46.040;18.232;2023-05-13T01:23:10;99930.22;;;9.22;90.81
78354;BME280;67629;46.040;18.232;2023-05-13T01:23:45;99924.31;;;9.25;91.26
78354;BME280;67629;46.040;18.232;2023-05-13T01:25:25;99919.31;;;9.22;90.09
78354;BME280;67629;46.040;18.232;2023-05-13T01:27:04;99928.34;;;9.23;90.41
78354;BME280;67629;46.040;18.232;2023-05-13T01:28:13;99924.38;;;9.18;91.06
78354;BME280;67629;46.040;18.232;2023-05-13T01:29:21;99922.88;;;9.23;90.02
78354;BME280;67629;46.040;18.232;2023-05-13T01:30:26;99932.19;;;9.15;90.61
78354;BME280;67629;46.040;18.232;2023-05-13T01:32:03;99934.84;;;9.22;90.77
78354;BME280;67629;46.040;18.232;2023-05-13T01:32:38;99934.16;;;9.26;90.17
78354;BME280;67629;46.040;18.232;2023-05-13T01:33:15;99932.50;;;9.25;89.85
78354;BME280;67629;46.040;18.232;2023-05-13T01:33:50;99929.16;;;9.23;89.90
78354;BME280;67629;46.040;18.232;2023-05-13T01:34:55;99931.75;;;9.18;89.96
78354;BME280;67629;46.040;18.232;2023-05-13T01:35:31;99933.19;;;9.21;89.92
78354;BME280;67629;46.040;18.232;2023-05-13T01:36:06;99923.56;;;9.18;89.94
78354;BME280;67629;46.040;18.232;2023-05-13T01:36:40;99926.75;;;9.15;90.33
78354;BME280;67629;46.040;18.232;2023-05-13T01:37:14;99922.50;;;9.19;90.09
78354;BME280;67629;46.040;18.232;2023-05-13T01:37:49;99931.97;;;9.16;90.68
78354;BME280;67629;46.040;18.232;2023-05-13T01:38:21;99927.34;;;9.17;90.42
78354;BME280;67629;46.040;18.232;2023-05-13T01:38:55;99930.66;;;9.19;90.94
78354;BME280;67629;46.040;18.232;2023-05-13T01:41:02;99926.75;;;9.15;90.09
78354;BME280;67629;46.040;18.232;2023-05-13T01:41:36;99934.47;;;9.18;90.40
78354;BME280;67629;46.040;18.232;2023-05-13T01:42:10;99932.81;;;9.17;89.55
78354;BME280;67629;46.040;18.232;2023-05-13T01:42:42;99933.00;;;9.15;90.32
78354;BME280;67629;46.040;18.232;2023-05-13T01:43:16;99936.44;;;9.11;90.15
78354;BME280;67629;46.040;18.232;2023-05-13T01:43:49;99936.44;;;9.11;90.39
78354;BME280;67629;46.040;18.232;2023-05-13T01:44:24;99930.53;;;9.14;90.61
78354;BME280;67629;46.040;18.232;2023-05-13T01:45:29;99935.13;;;9.13;90.31
78354;BME280;67629;46.040;18.232;2023-05-13T01:46:11;99926.81;;;9.08;91.10
78354;BME280;67629;46.040;18.232;2023-05-13T01:46:43;99933.50;;;9.12;90.49
78354;BME280;67629;46.040;18.232;2023-05-13T01:47:15;99930.28;;;9.15;90.67
78354;BME280;67629;46.040;18.232;2023-05-13T01:47:49;99929.94;;;9.12;90.66
78354;BME280;67629;46.040;18.232;2023-05-13T01:48:23;99927.66;;;9.09;90.66
78354;BME280;67629;46.040;18.232;2023-05-13T01:48:57;99928.84;;;9.13;90.03
78354;BME280;67629;46.040;18.232;2023-05-13T01:49:31;99930.78;;;9.12;90.18
78354;BME280;67629;46.040;18.232;2023-05-13T01:51:13;99937.28;;;9.11;90.53
78354;BME280;67629;46.040;18.232;2023-05-13T01:52:19;99937.66;;;9.15;90.36
78354;BME280;67629;46.040;18.232;2023-05-13T01:53:26;99940.97;;;9.17;89.91
78354;BME280;67629;46.040;18.232;2023-05-13T01:54:32;99937.81;;;9.20;89.82
78354;BME280;67629;46.040;18.232;2023-05-13T01:55:38;99933.50;;;9.12;89.88
78354;BME280;67629;46.040;18.232;2023-05-13T01:56:12;99948.31;;;9.16;89.90
78354;BME280;67629;46.040;18.232;2023-05-13T01:56:46;99951.09;;;9.10;89.97
78354;BME280;67629;46.040;18.232;2023-05-13T01:57:18;99948.16;;;9.11;89.77
78354;BME280;67629;46.040;18.232;2023-05-13T01:57:52;99946.72;;;9.09;90.22
78354;BME280;67629;46.040;18.232;2023-05-13T01:58:24;99951.50;;;9.13;90.17
78354;BME280;67629;46.040;18.232;2023-05-13T01:58:58;99947.78;;;9.08;90.84
78354;BME280;67629;46.040;18.232;2023-05-13T01:59:32;99942.78;;;9.05;90.44
78354;BME280;67629;46.040;18.232;2023-05-13T02:00:38;99954.91;;;9.09;90.76
78354;BME280;67629;46.040;18.232;2023-05-13T02:01:40;99953.09;;;9.03;90.87
78354;BME280;67629;46.040;18.232;2023-05-13T02:02:47;99951.78;;;9.05;90.67
78354;BME280;67629;46.040;18.232;2023-05-13T02:03:21;99951.56;;;9.07;90.56
78354;BME280;67629;46.040;18.232;2023-05-13T02:04:07;99949.31;;;9.04;90.82
78354;BME280;67629;46.040;18.232;2023-05-13T02:04:41;99952.84;;;9.04;90.61
78354;BME280;67629;46.040;18.232;2023-05-13T02:06:48;99950.88;;;8.93;91.59
78354;BME280;67629;46.040;18.232;2023-05-13T02:07:54;99952.16;;;8.91;91.97
78354;BME280;67629;46.040;18.232;2023-05-13T02:09:00;99952.59;;;8.88;91.89
78354;BME280;67629;46.040;18.232;2023-05-13T02:10:07;99954.66;;;8.92;91.67
78354;BME280;67629;46.040;18.232;2023-05-13T02:10:41;99946.56;;;8.86;91.93
78354;BME280;67629;46.040;18.232;2023-05-13T02:11:13;99947.41;;;8.86;91.62
78354;BME280;67629;46.040;18.232;2023-05-13T02:11:45;99948.19;;;8.87;91.64
78354;BME280;67629;46.040;18.232;2023-05-13T02:12:47;99951.16;;;8.85;92.30
78354;BME280;67629;46.040;18.232;2023-05-13T02:13:54;99948.13;;;8.93;91.80
78354;BME280;67629;46.040;18.232;2023-05-13T02:15:37;99956.31;;;8.93;91.81
78354;BME280;67629;46.040;18.232;2023-05-13T02:17:43;99960.47;;;8.96;91.50
78354;BME280;67629;46.040;18.232;2023-05-13T02:18:48;99949.44;;;8.91;91.84
78354;BME280;67629;46.040;18.232;2023-05-13T02:19:57;99956.84;;;8.84;92.21
78354;BME280;67629;46.040;18.232;2023-05-13T02:21:03;99941.31;;;8.84;92.67
78354;BME280;67629;46.040;18.232;2023-05-13T02:22:11;99949.13;;;8.81;92.95
78354;BME280;67629;46.040;18.232;2023-05-13T02:23:16;99944.13;;;8.78;92.31
78354;BME280;67629;46.040;18.232;2023-05-13T02:24:52;99944.34;;;8.76;92.68
78354;BME280;67629;46.040;18.232;2023-05-13T02:25:24;99951.22;;;8.79;92.55
78354;BME280;67629;46.040;18.232;2023-05-13T02:25:58;99950.38;;;8.78;92.54
78354;BME280;67629;46.040;18.232;2023-05-13T02:26:30;99951.00;;;8.80;91.93
78354;BME280;67629;46.040;18.232;2023-05-13T02:27:55;99949.13;;;8.81;92.30
78354;BME280;67629;46.040;18.232;2023-05-13T02:29:33;99948.19;;;8.69;92.63
78354;BME280;67629;46.040;18.232;2023-05-13T02:31:06;99957.56;;;8.73;93.01
78354;BME280;67629;46.040;18.232;2023-05-13T02:32:15;99952.84;;;8.62;93.15
78354;BME280;67629;46.040;18.232;2023-05-13T02:33:23;99953.69;;;8.62;93.52
78354;BME280;67629;46.040;18.232;2023-05-13T02:34:29;99951.19;;;8.61;93.01
78354;BME280;67629;46.040;18.232;2023-05-13T02:36:40;99952.44;;;8.58;93.34
78354;BME280;67629;46.040;18.232;2023-05-13T02:37:48;99956.41;;;8.62;93.07
78354;BME280;67629;46.040;18.232;2023-05-13T02:38:54;99956.41;;;8.62;93.26
78354;BME280;67629;46.040;18.232;2023-05-13T02:39:57;99954.72;;;8.61;93.38
78354;BME280;67629;46.040;18.232;2023-05-13T02:41:32;99954.28;;;8.64;93.56
78354;BME280;67629;46.040;18.232;2023-05-13T02:42:36;99951.19;;;8.61;93.57
78354;BME280;67629;46.040;18.232;2023-05-13T02:43:10;99952.00;;;8.61;93.12
78354;BME280;67629;46.040;18.232;2023-05-13T02:43:44;99950.38;;;8.60;93.47
78354;BME280;67629;46.040;18.232;2023-05-13T02:44:18;99955.66;;;8.55;93.88
78354;BME280;67629;46.040;18.232;2023-05-13T02:44:52;99954.38;;;8.57;93.48
78354;BME280;67629;46.040;18.232;2023-05-13T02:45:54;99956.81;;;8.66;93.37
78354;BME280;67629;46.040;18.232;2023-05-13T02:48:02;99961.66;;;8.64;93.61
78354;BME280;67629;46.040;18.232;2023-05-13T02:49:36;99954.72;;;8.61;93.92
78354;BME280;67629;46.040;18.232;2023-05-13T02:50:43;99952.25;;;8.59;93.80
78354;BME280;67629;46.040;18.232;2023-05-13T02:51:52;99963.81;;;8.55;93.94
78354;BME280;67629;46.040;18.232;2023-05-13T02:53:37;99960.84;;;8.56;93.75
78354;BME280;67629;46.040;18.232;2023-05-13T02:54:40;99961.84;;;8.62;93.59
78354;BME280;67629;46.040;18.232;2023-05-13T02:55:44;99967.53;;;8.61;93.50
78354;BME280;67629;46.040;18.232;2023-05-13T02:57:25;99964.56;;;8.62;93.40
78354;BME280;67629;46.040;18.232;2023-05-13T02:58:33;99972.97;;;8.61;93.43
78354;BME280;67629;46.040;18.232;2023-05-13T02:59:07;99970.03;;;8.62;93.44
78354;BME280;67629;46.040;18.232;2023-05-13T02:59:41;99968.13;;;8.63;93.42
78354;BME280;67629;46.040;18.232;2023-05-13T03:00:43;99966.91;;;8.58;93.94
78354;BME280;67629;46.040;18.232;2023-05-13T03:03:05;99978.19;;;8.62;93.28
78354;BME280;67629;46.040;18.232;2023-05-13T03:05:43;99968.19;;;8.56;93.54
78354;BME280;67629;46.040;18.232;2023-05-13T03:06:49;99966.53;;;8.55;93.52
78354;BME280;67629;46.040;18.232;2023-05-13T03:07:52;99971.75;;;8.56;93.44
78354;BME280;67629;46.040;18.232;2023-05-13T03:09:30;99971.34;;;8.53;93.80
78354;BME280;67629;46.040;18.232;2023-05-13T03:11:06;99973.44;;;8.57;93.18
78354;BME280;67629;46.040;18.232;2023-05-13T03:13:10;99974.50;;;8.50;93.21
78354;BME280;67629;46.040;18.232;2023-05-13T03:13:41;99977.69;;;8.47;93.91
78354;BME280;67629;46.040;18.232;2023-05-13T03:14:15;99974.31;;;8.51;93.54
78354;BME280;67629;46.040;18.232;2023-05-13T03:14:49;99968.44;;;8.54;93.35
78354;BME280;67629;46.040;18.232;2023-05-13T03:15:23;99969.06;;;8.50;93.37
78354;BME280;67629;46.040;18.232;2023-05-13T03:16:29;99968.06;;;8.44;93.68
78354;BME280;67629;46.040;18.232;2023-05-13T03:17:35;99977.06;;;8.45;93.65
78354;BME280;67629;46.040;18.232;2023-05-13T03:18:09;99976.69;;;8.41;93.91
78354;BME280;67629;46.040;18.232;2023-05-13T03:18:41;99972.06;;;8.42;93.65
78354;BME280;67629;46.040;18.232;2023-05-13T03:19:43;99979.81;;;8.45;93.79
78354;BME280;67629;46.040;18.232;2023-05-13T03:20:46;99978.34;;;8.42;94.14
78354;BME280;67629;46.040;18.232;2023-05-13T03:21:52;99976.31;;;8.38;94.24
78354;BME280;67629;46.040;18.232;2023-05-13T03:22:26;99976.91;;;8.40;94.33
78354;BME280;67629;46.040;18.232;2023-05-13T03:24:01;99980.03;;;8.43;94.01
78354;BME280;67629;46.040;18.232;2023-05-13T03:25:07;99976.25;;;8.44;94.17
78354;BME280;67629;46.040;18.232;2023-05-13T03:26:14;99974.19;;;8.40;94.21
78354;BME280;67629;46.040;18.232;2023-05-13T03:27:29;99975.19;;;8.45;94.14
78354;BME280;67629;46.040;18.232;2023-05-13T03:28:35;99976.63;;;8.48;93.76
78354;BME280;67629;46.040;18.232;2023-05-13T03:29:37;99976.88;;;8.46;94.38
78354;BME280;67629;46.040;18.232;2023-05-13T03:30:42;99974.06;;;8.53;93.55
78354;BME280;67629;46.040;18.232;2023-05-13T03:32:19;99978.91;;;8.51;93.78
78354;BME280;67629;46.040;18.232;2023-05-13T03:33:54;99975.59;;;8.49;93.96
78354;BME280;67629;46.040;18.232;2023-05-13T03:35:57;99977.53;;;8.42;94.08
78354;BME280;67629;46.040;18.232;2023-05-13T03:37:33;99971.22;;;8.41;94.77
78354;BME280;67629;46.040;18.232;2023-05-13T03:38:41;99981.53;;;8.39;94.70
78354;BME280;67629;46.040;18.232;2023-05-13T03:39:15;99979.41;;;8.41;94.84
78354;BME280;67629;46.040;18.232;2023-05-13T03:39:50;99972.69;;;8.44;94.44
78354;BME280;67629;46.040;18.232;2023-05-13T03:40:23;99974.19;;;8.40;94.49
78354;BME280;67629;46.040;18.232;2023-05-13T03:40:57;99974.63;;;8.37;94.59
78354;BME280;67629;46.040;18.232;2023-05-13T03:42:38;99982.34;;;8.40;94.43
78354;BME280;67629;46.040;18.232;2023-05-13T03:44:20;99985.66;;;8.48;94.08
78354;BME280;67629;46.040;18.232;2023-05-13T03:45:29;99986.69;;;8.47;94.32
78354;BME280;67629;46.040;18.232;2023-05-13T03:46:33;99991.03;;;8.55;93.80
78354;BME280;67629;46.040;18.232;2023-05-13T03:47:39;99985.59;;;8.55;93.49
78354;BME280;67629;46.040;18.232;2023-05-13T03:48:42;99995.22;;;8.57;93.32
78354;BME280;67629;46.040;18.232;2023-05-13T03:50:18;99998.13;;;8.56;93.50
78354;BME280;67629;46.040;18.232;2023-05-13T03:51:24;99994.81;;;8.54;94.14
78354;BME280;67629;46.040;18.232;2023-05-13T03:53:11;99994.81;;;8.54;93.79
78354;BME280;67629;46.040;18.232;2023-05-13T03:53:45;99990.41;;;8.53;93.66
78354;BME280;67629;46.040;18.232;2023-05-13T03:54:19;99990.19;;;8.54;94.18
78354;BME280;67629;46.040;18.232;2023-05-13T03:54:53;99991.03;;;8.55;94.10
78354;BME280;67629;46.040;18.232;2023-05-13T03:55:55;100001.13;;;8.48;93.78
78354;BME280;67629;46.040;18.232;2023-05-13T03:57:02;100001.38;;;8.46;94.42
78354;BME280;67629;46.040;18.232;2023-05-13T03:57:36;99990.69;;;8.45;94.11
78354;BME280;67629;46.040;18.232;2023-05-13T03:58:39;99988.97;;;8.50;94.29
78354;BME280;67629;46.040;18.232;2023-05-13T03:59:45;100006.13;;;8.51;93.77
78354;BME280;67629;46.040;18.232;2023-05-13T04:00:48;99998.75;;;8.58;93.57
78354;BME280;67629;46.040;18.232;2023-05-13T04:01:22;100006.69;;;8.59;93.88
78354;BME280;67629;46.040;18.232;2023-05-13T04:02:24;100001.84;;;8.62;93.59
78354;BME280;67629;46.040;18.232;2023-05-13T04:03:33;99998.69;;;8.65;93.71
78354;BME280;67629;46.040;18.232;2023-05-13T04:04:05;99998.75;;;8.58;93.48
78354;BME280;67629;46.040;18.232;2023-05-13T04:04:39;100004.88;;;8.53;93.55
78354;BME280;67629;46.040;18.232;2023-05-13T04:05:13;100000.84;;;8.56;93.68
78354;BME280;67629;46.040;18.232;2023-05-13T04:06:15;100003.56;;;8.56;94.10
78354;BME280;67629;46.040;18.232;2023-05-13T04:07:56;100007.38;;;8.55;93.97
78354;BME280;67629;46.040;18.232;2023-05-13T04:09:31;100008.41;;;8.54;94.02
78354;BME280;67629;46.040;18.232;2023-05-13T04:11:06;100010.91;;;8.55;94.23
78354;BME280;67629;46.040;18.232;2023-05-13T04:12:18;100018.72;;;8.52;94.56
78354;BME280;67629;46.040;18.232;2023-05-13T04:13:33;100016.34;;;8.55;94.36
78354;BME280;67629;46.040;18.232;2023-05-13T04:14:38;100011.16;;;8.54;94.19
78354;BME280;67629;46.040;18.232;2023-05-13T04:15:10;100014.06;;;8.52;93.93
78354;BME280;67629;46.040;18.232;2023-05-13T04:15:44;100017.03;;;8.51;94.15
78354;BME280;67629;46.040;18.232;2023-05-13T04:16:18;100013.47;;;8.50;94.59
78354;BME280;67629;46.040;18.232;2023-05-13T04:17:57;100013.69;;;8.49;94.47
78354;BME280;67629;46.040;18.232;2023-05-13T04:19:35;100013.63;;;8.55;94.41
78354;BME280;67629;46.040;18.232;2023-05-13T04:20:39;100015.31;;;8.56;94.35
78354;BME280;67629;46.040;18.232;2023-05-13T04:21:46;100011.31;;;8.59;94.29
78354;BME280;67629;46.040;18.232;2023-05-13T04:22:49;100016.75;;;8.59;94.22
78354;BME280;67629;46.040;18.232;2023-05-13T04:25:26;100017.59;;;8.59;94.36
78354;BME280;67629;46.040;18.232;2023-05-13T04:27:02;100025.16;;;8.57;93.93
78354;BME280;67629;46.040;18.232;2023-05-13T04:28:04;100021.59;;;8.57;94.20
78354;BME280;67629;46.040;18.232;2023-05-13T04:29:16;100020.31;;;8.59;94.66
78354;BME280;67629;46.040;18.232;2023-05-13T04:30:26;100013.59;;;8.62;94.59
78354;BME280;67629;46.040;18.232;2023-05-13T04:31:30;100018.28;;;8.55;94.79
78354;BME280;67629;46.040;18.232;2023-05-13T04:33:07;100017.00;;;8.57;94.83
78354;BME280;67629;46.040;18.232;2023-05-13T04:34:42;100013.38;;;8.64;94.42
78354;BME280;67629;46.040;18.232;2023-05-13T04:35:50;100020.31;;;8.59;94.41
78354;BME280;67629;46.040;18.232;2023-05-13T04:36:24;100018.75;;;8.70;94.45
78354;BME280;67629;46.040;18.232;2023-05-13T04:39:42;100024.00;;;8.72;94.01
78354;BME280;67629;46.040;18.232;2023-05-13T04:40:53;100026.63;;;8.78;94.00
78354;BME280;67629;46.040;18.232;2023-05-13T04:41:25;100028.13;;;8.81;93.75
78354;BME280;67629;46.040;18.232;2023-05-13T04:43:36;100027.53;;;8.97;93.23
78354;BME280;67629;46.040;18.232;2023-05-13T04:44:39;100021.03;;;8.98;93.26
78354;BME280;67629;46.040;18.232;2023-05-13T04:45:50;100018.91;;;9.00;92.95
78354;BME280;67629;46.040;18.232;2023-05-13T04:46:24;100017.03;;;9.00;93.01
78354;BME280;67629;46.040;18.232;2023-05-13T04:47:28;100023.31;;;9.01;93.16
78354;BME280;67629;46.040;18.232;2023-05-13T04:49:03;100019.31;;;9.03;93.10
78354;BME280;67629;46.040;18.232;2023-05-13T04:50:43;100015.84;;;9.14;93.07
78354;BME280;67629;46.040;18.232;2023-05-13T04:51:50;100014.31;;;9.18;92.60
78354;BME280;67629;46.040;18.232;2023-05-13T04:53:26;100016.88;;;9.13;92.64
78354;BME280;67629;46.040;18.232;2023-05-13T04:53:58;100019.56;;;9.20;92.74
78354;BME280;67629;46.040;18.232;2023-05-13T04:54:32;100013.22;;;9.26;92.71
78354;BME280;67629;46.040;18.232;2023-05-13T04:55:09;100016.78;;;9.27;91.84
78354;BME280;67629;46.040;18.232;2023-05-13T04:56:13;100015.03;;;9.32;91.77
78354;BME280;67629;46.040;18.232;2023-05-13T04:57:17;100009.94;;;9.36;91.95
78354;BME280;67629;46.040;18.232;2023-05-13T04:58:55;100013.59;;;9.48;91.43
78354;BME280;67629;46.040;18.232;2023-05-13T05:00:10;100022.53;;;9.55;91.13
78354;BME280;67629;46.040;18.232;2023-05-13T05:01:18;100020.19;;;9.58;91.24
78354;BME280;67629;46.040;18.232;2023-05-13T05:02:51;100022.81;;;9.65;91.20
78354;BME280;67629;46.040;18.232;2023-05-13T05:04:27;100022.97;;;9.70;90.51
78354;BME280;67629;46.040;18.232;2023-05-13T05:05:01;100024.31;;;9.79;90.02
78354;BME280;67629;46.040;18.232;2023-05-13T05:05:34;100021.97;;;9.83;90.10
78354;BME280;67629;46.040;18.232;2023-05-13T05:06:08;100026.22;;;9.79;89.95
78354;BME280;67629;46.040;18.232;2023-05-13T05:07:12;100024.72;;;9.83;90.24
78354;BME280;67629;46.040;18.232;2023-05-13T05:08:48;100018.56;;;9.87;89.46
78354;BME280;67629;46.040;18.232;2023-05-13T05:09:22;100023.88;;;9.82;90.13
78354;BME280;67629;46.040;18.232;2023-05-13T05:10:25;100016.91;;;9.86;89.45
78354;BME280;67629;46.040;18.232;2023-05-13T05:11:37;100014.19;;;9.86;88.64
78354;BME280;67629;46.040;18.232;2023-05-13T05:13:39;100018.47;;;9.94;89.04
78354;BME280;67629;46.040;18.232;2023-05-13T05:14:45;100022.97;;;9.88;88.65
78354;BME280;67629;46.040;18.232;2023-05-13T05:15:19;100022.13;;;9.88;88.91
78354;BME280;67629;46.040;18.232;2023-05-13T05:15:53;100011.50;;;9.98;88.86
78354;BME280;67629;46.040;18.232;2023-05-13T05:16:27;100018.25;;;9.95;88.38
78354;BME280;67629;46.040;18.232;2023-05-13T05:18:00;100013.63;;;9.96;88.69
78354;BME280;67629;46.040;18.232;2023-05-13T05:19:39;100014.00;;;9.99;88.39
78354;BME280;67629;46.040;18.232;2023-05-13T05:20:45;100010.25;;;10.12;88.57
78354;BME280;67629;46.040;18.232;2023-05-13T05:21:51;100014.19;;;10.16;86.83
78354;BME280;67629;46.040;18.232;2023-05-13T05:23:24;100009.97;;;10.20;87.25
78354;BME280;67629;46.040;18.232;2023-05-13T05:24:34;100009.41;;;10.11;87.30
78354;BME280;67629;46.040;18.232;2023-05-13T05:26:39;100007.53;;;10.12;87.64
78354;BME280;67629;46.040;18.232;2023-05-13T05:28:41;100006.63;;;10.18;86.75
78354;BME280;67629;46.040;18.232;2023-05-13T05:29:47;100010.88;;;10.14;87.18
78354;BME280;67629;46.040;18.232;2023-05-13T05:30:53;100005.34;;;10.20;87.69
78354;BME280;67629;46.040;18.232;2023-05-13T05:31:27;100004.78;;;10.30;87.29
78354;BME280;67629;46.040;18.232;2023-05-13T05:32:01;100005.63;;;10.42;86.98
78354;BME280;67629;46.040;18.232;2023-05-13T05:32:35;100003.16;;;10.41;86.59
78354;BME280;67629;46.040;18.232;2023-05-13T05:34:39;100005.69;;;10.65;85.75
78354;BME280;67629;46.040;18.232;2023-05-13T05:35:41;100012.25;;;10.76;85.82
78354;BME280;67629;46.040;18.232;2023-05-13T05:36:45;100016.03;;;10.75;85.18
78354;BME280;67629;46.040;18.232;2023-05-13T05:37:47;100009.63;;;10.81;85.16
78354;BME280;67629;46.040;18.232;2023-05-13T05:38:54;100004.28;;;10.86;84.47
78354;BME280;67629;46.040;18.232;2023-05-13T05:40:02;100011.50;;;10.57;85.68